Česky Dansk Deutsch English Español Suomi Français Magyar Italiano Nederlands norsk Polski Português svenska Türkçe

 

Het Weer

Newcastle (Zuid Afrika)

06:00, 27 November 2007 (GMT)

NWNNE
WE
SWSSE
Home            
Newcastle Vryheid Ladysmith Standerton Ermelo Ulundi Frankfort Greytown Bethlehem Airport Manzini / Matsapa Airport Carolina Pietermaritzburg Witbank Springs Richard Bay Vereeniging Durban/Virginia Johannesburg International Airport Rand Durban, Durban International Airport Pretoria Irene Waterkloof (SAAF) Nelspruit

Om een weerknop op uw website of weblog te plaatsen, copieer onderstaande code en plak die in uw pagina. In het eerste vakje staat HTML-code, in het tweede vakje UBB-code.


Add to Google

Details

Wind speed:3 bf, 9 kn, 4.6 m/s, 10.4 miles/h, 16.7 km/h
Wind direction:ENE, 070°
Het Weer:moderate
moderate
moderate
Temperature:19°C, 66°F
Dew-point:17°C, 63°F
Atmospheric pressure:1017 hPa, 762.8 mmHg, 30.03 inHg, 1.004 atm
Relative humidity:88.2 %
METAR:FANC 270600Z AUTO 07009KT 19/17 Q1017

Snelkoppelingen

Actuele weersinformatie van de hele wereld. Voeg locaties toe met het plus (+) symbool. Deze snelkoppelingen kunnen worden toegevoegd aan Google.

Lid van de Technetium groep

website free tracking
StatCounter NetStat W3C Validator

15-12-2018 08:04:27
astro.technetium.be money.technetium.be phote.technetium.be tafeltennistafel.technetium.be www.ligfiets.net